sensor_id;sensor_type;location;lat;lon;timestamp;temperature;humidity
55064;DHT22;40963;52.168;21.296;2023-04-06T00:00:37;1.90;75.60
55064;DHT22;40963;52.168;21.296;2023-04-06T00:03:03;1.80;75.50
55064;DHT22;40963;52.168;21.296;2023-04-06T00:05:28;1.80;75.40
55064;DHT22;40963;52.168;21.296;2023-04-06T00:07:59;1.80;75.40
55064;DHT22;40963;52.168;21.296;2023-04-06T00:10:24;1.80;75.60
55064;DHT22;40963;52.168;21.296;2023-04-06T00:12:50;1.80;75.80
55064;DHT22;40963;52.168;21.296;2023-04-06T00:15:16;1.80;76.60
55064;DHT22;40963;52.168;21.296;2023-04-06T00:17:42;1.80;75.80
55064;DHT22;40963;52.168;21.296;2023-04-06T00:20:07;1.80;75.70
55064;DHT22;40963;52.168;21.296;2023-04-06T00:22:33;1.80;75.80
55064;DHT22;40963;52.168;21.296;2023-04-06T00:24:59;1.80;75.80
55064;DHT22;40963;52.168;21.296;2023-04-06T00:27:25;1.80;75.80
55064;DHT22;40963;52.168;21.296;2023-04-06T00:29:50;1.80;75.90
55064;DHT22;40963;52.168;21.296;2023-04-06T00:32:16;1.80;75.90
55064;DHT22;40963;52.168;21.296;2023-04-06T00:34:41;1.80;75.80
55064;DHT22;40963;52.168;21.296;2023-04-06T00:37:07;1.80;75.90
55064;DHT22;40963;52.168;21.296;2023-04-06T00:39:33;1.80;75.80
55064;DHT22;40963;52.168;21.296;2023-04-06T00:41:58;1.70;75.90
55064;DHT22;40963;52.168;21.296;2023-04-06T00:44:24;1.80;75.90
55064;DHT22;40963;52.168;21.296;2023-04-06T00:46:50;1.70;75.90
55064;DHT22;40963;52.168;21.296;2023-04-06T00:49:15;1.70;76.00
55064;DHT22;40963;52.168;21.296;2023-04-06T00:51:41;1.80;76.10
55064;DHT22;40963;52.168;21.296;2023-04-06T00:54:07;1.70;76.70
55064;DHT22;40963;52.168;21.296;2023-04-06T00:56:32;1.70;76.20
55064;DHT22;40963;52.168;21.296;2023-04-06T00:58:58;1.80;76.50
55064;DHT22;40963;52.168;21.296;2023-04-06T01:01:24;1.80;76.30
55064;DHT22;40963;52.168;21.296;2023-04-06T01:03:50;1.80;76.30
55064;DHT22;40963;52.168;21.296;2023-04-06T01:06:16;1.80;76.20
55064;DHT22;40963;52.168;21.296;2023-04-06T01:08:42;1.80;76.30
55064;DHT22;40963;52.168;21.296;2023-04-06T01:11:07;1.70;76.30
55064;DHT22;40963;52.168;21.296;2023-04-06T01:13:33;1.70;76.50
55064;DHT22;40963;52.168;21.296;2023-04-06T01:15:59;1.70;76.50
55064;DHT22;40963;52.168;21.296;2023-04-06T01:18:28;1.70;76.50
55064;DHT22;40963;52.168;21.296;2023-04-06T01:20:55;1.70;76.70
55064;DHT22;40963;52.168;21.296;2023-04-06T01:23:20;1.70;76.60
55064;DHT22;40963;52.168;21.296;2023-04-06T01:25:46;1.70;76.80
55064;DHT22;40963;52.168;21.296;2023-04-06T01:28:12;1.70;77.10
55064;DHT22;40963;52.168;21.296;2023-04-06T01:30:37;1.70;77.70
55064;DHT22;40963;52.168;21.296;2023-04-06T01:33:03;1.70;77.10
55064;DHT22;40963;52.168;21.296;2023-04-06T01:35:30;1.60;77.30
55064;DHT22;40963;52.168;21.296;2023-04-06T01:37:56;1.60;77.50
55064;DHT22;40963;52.168;21.296;2023-04-06T01:40:21;1.60;77.60
55064;DHT22;40963;52.168;21.296;2023-04-06T01:42:47;1.60;77.80
55064;DHT22;40963;52.168;21.296;2023-04-06T01:45:13;1.60;78.10
55064;DHT22;40963;52.168;21.296;2023-04-06T01:47:38;1.60;78.30
55064;DHT22;40963;52.168;21.296;2023-04-06T01:50:04;1.60;78.40
55064;DHT22;40963;52.168;21.296;2023-04-06T01:52:32;1.50;78.30
55064;DHT22;40963;52.168;21.296;2023-04-06T01:54:58;1.60;78.60
55064;DHT22;40963;52.168;21.296;2023-04-06T01:57:24;1.50;78.70
55064;DHT22;40963;52.168;21.296;2023-04-06T01:59:51;1.50;78.80
55064;DHT22;40963;52.168;21.296;2023-04-06T02:02:16;1.40;78.90
55064;DHT22;40963;52.168;21.296;2023-04-06T02:04:42;1.40;79.00
55064;DHT22;40963;52.168;21.296;2023-04-06T02:07:08;1.40;79.00
55064;DHT22;40963;52.168;21.296;2023-04-06T02:09:33;1.40;79.00
55064;DHT22;40963;52.168;21.296;2023-04-06T02:11:59;1.40;79.90
55064;DHT22;40963;52.168;21.296;2023-04-06T02:14:26;1.40;79.30
55064;DHT22;40963;52.168;21.296;2023-04-06T02:16:52;1.40;79.30
55064;DHT22;40963;52.168;21.296;2023-04-06T02:19:17;1.40;79.50
55064;DHT22;40963;52.168;21.296;2023-04-06T02:21:43;1.30;79.30
55064;DHT22;40963;52.168;21.296;2023-04-06T02:24:08;1.30;79.40
55064;DHT22;40963;52.168;21.296;2023-04-06T02:26:34;1.30;79.60
55064;DHT22;40963;52.168;21.296;2023-04-06T02:29:00;1.30;79.60
55064;DHT22;40963;52.168;21.296;2023-04-06T02:31:27;1.20;79.70
55064;DHT22;40963;52.168;21.296;2023-04-06T02:33:53;1.20;79.90
55064;DHT22;40963;52.168;21.296;2023-04-06T02:36:18;1.20;79.90
55064;DHT22;40963;52.168;21.296;2023-04-06T02:38:44;1.20;80.10
55064;DHT22;40963;52.168;21.296;2023-04-06T02:41:09;1.10;80.20
55064;DHT22;40963;52.168;21.296;2023-04-06T02:43:35;1.10;80.50
55064;DHT22;40963;52.168;21.296;2023-04-06T02:46:00;1.10;80.50
55064;DHT22;40963;52.168;21.296;2023-04-06T02:48:26;1.10;80.90
55064;DHT22;40963;52.168;21.296;2023-04-06T02:50:52;1.10;80.90
55064;DHT22;40963;52.168;21.296;2023-04-06T02:53:17;1.10;81.00
55064;DHT22;40963;52.168;21.296;2023-04-06T02:55:43;1.00;81.10
55064;DHT22;40963;52.168;21.296;2023-04-06T02:58:08;1.00;81.20
55064;DHT22;40963;52.168;21.296;2023-04-06T03:00:34;1.00;81.40
55064;DHT22;40963;52.168;21.296;2023-04-06T03:03:01;1.00;81.40
55064;DHT22;40963;52.168;21.296;2023-04-06T03:05:27;0.90;81.60
55064;DHT22;40963;52.168;21.296;2023-04-06T03:07:52;0.90;81.80
55064;DHT22;40963;52.168;21.296;2023-04-06T03:10:18;0.90;82.00
55064;DHT22;40963;52.168;21.296;2023-04-06T03:12:43;0.90;82.20
55064;DHT22;40963;52.168;21.296;2023-04-06T03:15:09;0.90;82.30
55064;DHT22;40963;52.168;21.296;2023-04-06T03:17:35;0.90;82.70
55064;DHT22;40963;52.168;21.296;2023-04-06T03:20:01;0.90;83.00
55064;DHT22;40963;52.168;21.296;2023-04-06T03:22:27;0.90;83.00
55064;DHT22;40963;52.168;21.296;2023-04-06T03:24:52;0.90;83.20
55064;DHT22;40963;52.168;21.296;2023-04-06T03:27:18;0.90;83.30
55064;DHT22;40963;52.168;21.296;2023-04-06T03:29:43;0.90;83.50
55064;DHT22;40963;52.168;21.296;2023-04-06T03:32:09;0.90;83.70
55064;DHT22;40963;52.168;21.296;2023-04-06T03:34:35;0.90;83.80
55064;DHT22;40963;52.168;21.296;2023-04-06T03:37:01;0.90;83.80
55064;DHT22;40963;52.168;21.296;2023-04-06T03:39:26;0.90;84.10
55064;DHT22;40963;52.168;21.296;2023-04-06T03:41:52;0.90;84.20
55064;DHT22;40963;52.168;21.296;2023-04-06T03:44:18;0.90;84.20
55064;DHT22;40963;52.168;21.296;2023-04-06T03:46:43;0.90;84.40
55064;DHT22;40963;52.168;21.296;2023-04-06T03:49:09;0.90;84.70
55064;DHT22;40963;52.168;21.296;2023-04-06T03:51:35;0.90;84.80
55064;DHT22;40963;52.168;21.296;2023-04-06T03:54:00;0.90;85.00
55064;DHT22;40963;52.168;21.296;2023-04-06T03:56:26;0.80;85.10
55064;DHT22;40963;52.168;21.296;2023-04-06T03:58:52;0.80;85.20
55064;DHT22;40963;52.168;21.296;2023-04-06T04:01:17;0.80;85.60
55064;DHT22;40963;52.168;21.296;2023-04-06T04:03:43;0.80;85.70
55064;DHT22;40963;52.168;21.296;2023-04-06T04:06:09;0.80;85.90
55064;DHT22;40963;52.168;21.296;2023-04-06T04:08:35;0.80;86.10
55064;DHT22;40963;52.168;21.296;2023-04-06T04:11:01;0.80;86.20
55064;DHT22;40963;52.168;21.296;2023-04-06T04:13:26;0.80;86.40
55064;DHT22;40963;52.168;21.296;2023-04-06T04:15:52;0.80;86.60
55064;DHT22;40963;52.168;21.296;2023-04-06T04:18:18;0.80;86.70
55064;DHT22;40963;52.168;21.296;2023-04-06T04:20:44;0.80;86.80
55064;DHT22;40963;52.168;21.296;2023-04-06T04:23:10;0.80;86.90
55064;DHT22;40963;52.168;21.296;2023-04-06T04:25:36;0.80;87.10
55064;DHT22;40963;52.168;21.296;2023-04-06T04:28:02;0.90;87.10
55064;DHT22;40963;52.168;21.296;2023-04-06T04:30:28;0.90;87.20
55064;DHT22;40963;52.168;21.296;2023-04-06T04:32:53;0.90;87.40
55064;DHT22;40963;52.168;21.296;2023-04-06T04:35:19;0.90;87.60
55064;DHT22;40963;52.168;21.296;2023-04-06T04:37:45;0.90;87.60
55064;DHT22;40963;52.168;21.296;2023-04-06T04:40:11;0.90;87.70
55064;DHT22;40963;52.168;21.296;2023-04-06T04:42:36;0.90;87.50
55064;DHT22;40963;52.168;21.296;2023-04-06T04:45:02;0.90;87.40
55064;DHT22;40963;52.168;21.296;2023-04-06T04:47:28;0.90;87.50
55064;DHT22;40963;52.168;21.296;2023-04-06T04:49:53;1.00;87.50
55064;DHT22;40963;52.168;21.296;2023-04-06T04:52:19;1.00;87.60
55064;DHT22;40963;52.168;21.296;2023-04-06T04:54:44;1.00;87.50
55064;DHT22;40963;52.168;21.296;2023-04-06T04:57:12;1.00;87.30
55064;DHT22;40963;52.168;21.296;2023-04-06T04:59:37;1.00;87.30
55064;DHT22;40963;52.168;21.296;2023-04-06T05:02:03;1.10;87.20
55064;DHT22;40963;52.168;21.296;2023-04-06T05:04:29;1.10;87.20
55064;DHT22;40963;52.168;21.296;2023-04-06T05:07:05;1.10;87.00
55064;DHT22;40963;52.168;21.296;2023-04-06T05:09:30;1.20;87.00
55064;DHT22;40963;52.168;21.296;2023-04-06T05:11:57;1.20;87.10
55064;DHT22;40963;52.168;21.296;2023-04-06T05:14:23;1.20;86.80
55064;DHT22;40963;52.168;21.296;2023-04-06T05:16:49;1.30;86.60
55064;DHT22;40963;52.168;21.296;2023-04-06T05:19:14;1.30;86.40
55064;DHT22;40963;52.168;21.296;2023-04-06T05:21:41;1.30;86.10
55064;DHT22;40963;52.168;21.296;2023-04-06T05:24:06;1.40;86.10
55064;DHT22;40963;52.168;21.296;2023-04-06T05:26:32;1.40;85.80
55064;DHT22;40963;52.168;21.296;2023-04-06T05:28:58;1.50;85.30
55064;DHT22;40963;52.168;21.296;2023-04-06T05:31:23;1.50;85.00
55064;DHT22;40963;52.168;21.296;2023-04-06T05:33:49;1.60;85.40
55064;DHT22;40963;52.168;21.296;2023-04-06T05:36:15;1.60;85.30
55064;DHT22;40963;52.168;21.296;2023-04-06T05:38:40;1.60;85.00
55064;DHT22;40963;52.168;21.296;2023-04-06T05:41:06;1.70;84.70
55064;DHT22;40963;52.168;21.296;2023-04-06T05:43:31;1.70;84.70
55064;DHT22;40963;52.168;21.296;2023-04-06T05:45:57;1.70;84.70
55064;DHT22;40963;52.168;21.296;2023-04-06T05:48:23;1.70;84.60
55064;DHT22;40963;52.168;21.296;2023-04-06T05:50:49;1.80;84.60
55064;DHT22;40963;52.168;21.296;2023-04-06T05:53:16;1.80;84.40
55064;DHT22;40963;52.168;21.296;2023-04-06T05:55:41;1.80;84.30
55064;DHT22;40963;52.168;21.296;2023-04-06T05:58:07;1.90;84.40
55064;DHT22;40963;52.168;21.296;2023-04-06T06:00:33;1.90;84.40
55064;DHT22;40963;52.168;21.296;2023-04-06T06:02:58;1.90;84.40
55064;DHT22;40963;52.168;21.296;2023-04-06T06:05:24;1.90;84.50
55064;DHT22;40963;52.168;21.296;2023-04-06T06:07:50;1.90;84.50
55064;DHT22;40963;52.168;21.296;2023-04-06T06:10:15;2.00;84.70
55064;DHT22;40963;52.168;21.296;2023-04-06T06:12:41;2.00;84.90
55064;DHT22;40963;52.168;21.296;2023-04-06T06:15:07;2.00;85.00
55064;DHT22;40963;52.168;21.296;2023-04-06T06:17:33;2.00;85.20
55064;DHT22;40963;52.168;21.296;2023-04-06T06:19:58;2.10;85.50
55064;DHT22;40963;52.168;21.296;2023-04-06T06:22:24;2.10;85.60
55064;DHT22;40963;52.168;21.296;2023-04-06T06:24:49;2.20;85.50
55064;DHT22;40963;52.168;21.296;2023-04-06T06:27:15;2.20;85.50
55064;DHT22;40963;52.168;21.296;2023-04-06T06:29:41;2.20;85.60
55064;DHT22;40963;52.168;21.296;2023-04-06T06:32:07;2.20;86.10
55064;DHT22;40963;52.168;21.296;2023-04-06T06:34:34;2.20;86.10
55064;DHT22;40963;52.168;21.296;2023-04-06T06:37:01;2.30;86.30
55064;DHT22;40963;52.168;21.296;2023-04-06T06:39:28;2.30;86.60
55064;DHT22;40963;52.168;21.296;2023-04-06T06:41:53;2.40;86.70
55064;DHT22;40963;52.168;21.296;2023-04-06T06:44:22;2.50;86.80
55064;DHT22;40963;52.168;21.296;2023-04-06T06:46:48;2.50;86.80
55064;DHT22;40963;52.168;21.296;2023-04-06T06:49:13;2.60;86.40
55064;DHT22;40963;52.168;21.296;2023-04-06T06:51:40;2.60;86.30
55064;DHT22;40963;52.168;21.296;2023-04-06T06:54:05;2.50;86.00
55064;DHT22;40963;52.168;21.296;2023-04-06T06:56:31;2.50;86.10
55064;DHT22;40963;52.168;21.296;2023-04-06T06:58:57;2.50;86.10
55064;DHT22;40963;52.168;21.296;2023-04-06T07:01:22;2.50;86.60
55064;DHT22;40963;52.168;21.296;2023-04-06T07:03:48;2.50;86.80
55064;DHT22;40963;52.168;21.296;2023-04-06T07:06:15;2.50;87.00
55064;DHT22;40963;52.168;21.296;2023-04-06T07:08:40;2.50;87.40
55064;DHT22;40963;52.168;21.296;2023-04-06T07:11:06;2.50;86.90
55064;DHT22;40963;52.168;21.296;2023-04-06T07:13:31;2.50;87.00
55064;DHT22;40963;52.168;21.296;2023-04-06T07:15:57;2.50;87.00
55064;DHT22;40963;52.168;21.296;2023-04-06T07:18:23;2.50;86.80
55064;DHT22;40963;52.168;21.296;2023-04-06T07:20:48;2.50;87.10
55064;DHT22;40963;52.168;21.296;2023-04-06T07:23:14;2.60;87.40
55064;DHT22;40963;52.168;21.296;2023-04-06T07:25:40;2.60;86.60
55064;DHT22;40963;52.168;21.296;2023-04-06T07:28:06;2.50;87.10
55064;DHT22;40963;52.168;21.296;2023-04-06T07:30:32;2.50;87.10
55064;DHT22;40963;52.168;21.296;2023-04-06T07:32:57;2.50;87.70
55064;DHT22;40963;52.168;21.296;2023-04-06T07:35:25;2.50;88.00
55064;DHT22;40963;52.168;21.296;2023-04-06T07:37:52;2.60;87.70
55064;DHT22;40963;52.168;21.296;2023-04-06T07:40:18;2.60;87.50
55064;DHT22;40963;52.168;21.296;2023-04-06T07:42:45;2.50;88.40
55064;DHT22;40963;52.168;21.296;2023-04-06T07:45:11;2.50;89.40
55064;DHT22;40963;52.168;21.296;2023-04-06T07:47:36;2.50;90.10
55064;DHT22;40963;52.168;21.296;2023-04-06T07:50:02;2.50;90.30
55064;DHT22;40963;52.168;21.296;2023-04-06T07:52:28;2.50;90.70
55064;DHT22;40963;52.168;21.296;2023-04-06T07:54:54;2.40;91.10
55064;DHT22;40963;52.168;21.296;2023-04-06T07:57:19;2.40;91.80
55064;DHT22;40963;52.168;21.296;2023-04-06T07:59:45;2.40;92.60
55064;DHT22;40963;52.168;21.296;2023-04-06T08:02:10;2.40;93.20
55064;DHT22;40963;52.168;21.296;2023-04-06T08:04:36;2.40;93.40
55064;DHT22;40963;52.168;21.296;2023-04-06T08:07:02;2.40;93.90
55064;DHT22;40963;52.168;21.296;2023-04-06T08:09:27;2.40;94.70
55064;DHT22;40963;52.168;21.296;2023-04-06T08:11:53;2.50;94.80
55064;DHT22;40963;52.168;21.296;2023-04-06T08:14:19;2.50;95.20
55064;DHT22;40963;52.168;21.296;2023-04-06T08:16:45;2.50;95.40
55064;DHT22;40963;52.168;21.296;2023-04-06T08:19:11;2.50;95.40
55064;DHT22;40963;52.168;21.296;2023-04-06T08:21:36;2.60;95.20
55064;DHT22;40963;52.168;21.296;2023-04-06T08:24:02;2.60;95.60
55064;DHT22;40963;52.168;21.296;2023-04-06T08:26:28;2.60;95.60
55064;DHT22;40963;52.168;21.296;2023-04-06T08:28:54;2.60;95.00
55064;DHT22;40963;52.168;21.296;2023-04-06T08:31:19;2.50;94.70
55064;DHT22;40963;52.168;21.296;2023-04-06T08:33:45;2.50;95.20
55064;DHT22;40963;52.168;21.296;2023-04-06T08:36:13;2.50;95.80
55064;DHT22;40963;52.168;21.296;2023-04-06T08:38:39;2.50;96.20
55064;DHT22;40963;52.168;21.296;2023-04-06T08:41:10;2.50;96.30
55064;DHT22;40963;52.168;21.296;2023-04-06T08:43:49;2.50;96.70
55064;DHT22;40963;52.168;21.296;2023-04-06T08:46:15;2.50;97.60
55064;DHT22;40963;52.168;21.296;2023-04-06T08:48:42;2.50;97.90
55064;DHT22;40963;52.168;21.296;2023-04-06T08:51:11;2.50;98.80
55064;DHT22;40963;52.168;21.296;2023-04-06T08:53:37;2.50;99.90
55064;DHT22;40963;52.168;21.296;2023-04-06T08:56:04;2.40;99.90
55064;DHT22;40963;52.168;21.296;2023-04-06T08:58:34;2.40;99.90
55064;DHT22;40963;52.168;21.296;2023-04-06T09:01:02;2.40;99.90
55064;DHT22;40963;52.168;21.296;2023-04-06T09:03:29;2.40;99.90
55064;DHT22;40963;52.168;21.296;2023-04-06T09:05:55;2.40;99.90
55064;DHT22;40963;52.168;21.296;2023-04-06T09:08:21;2.30;99.90
55064;DHT22;40963;52.168;21.296;2023-04-06T09:10:47;2.30;99.90
55064;DHT22;40963;52.168;21.296;2023-04-06T09:13:14;2.30;99.90
55064;DHT22;40963;52.168;21.296;2023-04-06T09:15:39;2.30;99.90
55064;DHT22;40963;52.168;21.296;2023-04-06T09:18:05;2.30;99.90
55064;DHT22;40963;52.168;21.296;2023-04-06T09:20:31;2.30;99.90
55064;DHT22;40963;52.168;21.296;2023-04-06T09:22:56;2.30;99.90
55064;DHT22;40963;52.168;21.296;2023-04-06T09:25:23;2.20;99.90
55064;DHT22;40963;52.168;21.296;2023-04-06T09:28:01;2.30;99.90
55064;DHT22;40963;52.168;21.296;2023-04-06T09:30:27;2.20;99.90
55064;DHT22;40963;52.168;21.296;2023-04-06T09:32:55;2.20;99.90
55064;DHT22;40963;52.168;21.296;2023-04-06T09:35:22;2.20;99.90
55064;DHT22;40963;52.168;21.296;2023-04-06T09:37:49;2.20;99.90
55064;DHT22;40963;52.168;21.296;2023-04-06T09:40:16;2.20;99.90
55064;DHT22;40963;52.168;21.296;2023-04-06T09:42:46;2.20;99.90
55064;DHT22;40963;52.168;21.296;2023-04-06T09:45:12;2.20;99.90
55064;DHT22;40963;52.168;21.296;2023-04-06T09:47:40;2.20;99.90
55064;DHT22;40963;52.168;21.296;2023-04-06T09:50:09;2.30;99.90
55064;DHT22;40963;52.168;21.296;2023-04-06T09:52:50;2.20;99.90
55064;DHT22;40963;52.168;21.296;2023-04-06T09:55:41;2.20;99.90
55064;DHT22;40963;52.168;21.296;2023-04-06T09:58:10;2.20;99.90
55064;DHT22;40963;52.168;21.296;2023-04-06T10:00:47;2.10;99.90
55064;DHT22;40963;52.168;21.296;2023-04-06T10:06:15;2.10;99.90
55064;DHT22;40963;52.168;21.296;2023-04-06T10:08:43;2.10;99.90
55064;DHT22;40963;52.168;21.296;2023-04-06T10:11:11;2.10;99.90
55064;DHT22;40963;52.168;21.296;2023-04-06T10:13:37;2.10;99.90
55064;DHT22;40963;52.168;21.296;2023-04-06T10:16:02;2.10;99.90
55064;DHT22;40963;52.168;21.296;2023-04-06T10:18:29;2.10;99.90
55064;DHT22;40963;52.168;21.296;2023-04-06T10:21:00;2.10;99.90
55064;DHT22;40963;52.168;21.296;2023-04-06T10:23:41;2.10;99.90
55064;DHT22;40963;52.168;21.296;2023-04-06T10:26:14;2.10;99.90
55064;DHT22;40963;52.168;21.296;2023-04-06T10:28:42;2.20;99.90
55064;DHT22;40963;52.168;21.296;2023-04-06T10:31:08;2.20;99.90
55064;DHT22;40963;52.168;21.296;2023-04-06T10:33:34;2.20;99.90
55064;DHT22;40963;52.168;21.296;2023-04-06T10:36:11;2.20;99.90
55064;DHT22;40963;52.168;21.296;2023-04-06T10:38:38;2.20;99.90
55064;DHT22;40963;52.168;21.296;2023-04-06T10:41:08;2.20;99.90
55064;DHT22;40963;52.168;21.296;2023-04-06T10:43:35;2.30;99.90
55064;DHT22;40963;52.168;21.296;2023-04-06T10:46:02;2.20;99.90
55064;DHT22;40963;52.168;21.296;2023-04-06T10:48:44;2.30;99.90
55064;DHT22;40963;52.168;21.296;2023-04-06T10:51:15;2.30;99.90
55064;DHT22;40963;52.168;21.296;2023-04-06T10:53:47;2.40;99.90
55064;DHT22;40963;52.168;21.296;2023-04-06T10:56:18;2.30;99.90
55064;DHT22;40963;52.168;21.296;2023-04-06T10:58:53;2.40;99.90
55064;DHT22;40963;52.168;21.296;2023-04-06T11:01:21;2.40;99.90
55064;DHT22;40963;52.168;21.296;2023-04-06T11:03:54;2.40;99.90
55064;DHT22;40963;52.168;21.296;2023-04-06T11:06:22;2.50;99.90
55064;DHT22;40963;52.168;21.296;2023-04-06T11:08:48;2.50;99.90
55064;DHT22;40963;52.168;21.296;2023-04-06T11:11:17;2.50;99.90
55064;DHT22;40963;52.168;21.296;2023-04-06T11:13:53;2.50;99.90
55064;DHT22;40963;52.168;21.296;2023-04-06T11:16:26;2.50;99.90
55064;DHT22;40963;52.168;21.296;2023-04-06T11:18:56;2.50;99.90
55064;DHT22;40963;52.168;21.296;2023-04-06T11:24:16;2.50;99.90
55064;DHT22;40963;52.168;21.296;2023-04-06T11:26:47;2.50;99.90
55064;DHT22;40963;52.168;21.296;2023-04-06T11:29:15;2.60;99.90
55064;DHT22;40963;52.168;21.296;2023-04-06T11:31:45;2.60;99.90
55064;DHT22;40963;52.168;21.296;2023-04-06T11:34:12;2.60;99.90
55064;DHT22;40963;52.168;21.296;2023-04-06T11:36:42;2.70;99.90
55064;DHT22;40963;52.168;21.296;2023-04-06T11:39:08;2.70;99.90
55064;DHT22;40963;52.168;21.296;2023-04-06T11:41:34;2.80;99.90
55064;DHT22;40963;52.168;21.296;2023-04-06T11:44:01;2.80;99.90
55064;DHT22;40963;52.168;21.296;2023-04-06T11:46:28;2.70;99.90
55064;DHT22;40963;52.168;21.296;2023-04-06T11:49:01;2.80;99.90
55064;DHT22;40963;52.168;21.296;2023-04-06T11:51:27;2.80;99.90
55064;DHT22;40963;52.168;21.296;2023-04-06T11:53:53;2.80;99.90
55064;DHT22;40963;52.168;21.296;2023-04-06T11:56:27;2.80;99.90
55064;DHT22;40963;52.168;21.296;2023-04-06T11:58:55;2.80;99.90
55064;DHT22;40963;52.168;21.296;2023-04-06T12:01:22;2.80;99.90
55064;DHT22;40963;52.168;21.296;2023-04-06T12:03:48;2.90;99.90
55064;DHT22;40963;52.168;21.296;2023-04-06T12:06:14;2.90;99.90
55064;DHT22;40963;52.168;21.296;2023-04-06T12:08:40;2.90;99.90
55064;DHT22;40963;52.168;21.296;2023-04-06T12:11:06;2.90;99.90
55064;DHT22;40963;52.168;21.296;2023-04-06T12:13:32;3.00;99.90
55064;DHT22;40963;52.168;21.296;2023-04-06T12:15:57;3.00;99.90
55064;DHT22;40963;52.168;21.296;2023-04-06T12:18:23;3.00;99.90
55064;DHT22;40963;52.168;21.296;2023-04-06T12:20:48;3.10;99.90
55064;DHT22;40963;52.168;21.296;2023-04-06T12:23:14;3.10;99.90
55064;DHT22;40963;52.168;21.296;2023-04-06T12:25:41;3.10;99.90
55064;DHT22;40963;52.168;21.296;2023-04-06T12:28:07;3.00;99.90
55064;DHT22;40963;52.168;21.296;2023-04-06T12:30:35;3.10;99.90
55064;DHT22;40963;52.168;21.296;2023-04-06T12:33:00;3.10;99.90
55064;DHT22;40963;52.168;21.296;2023-04-06T12:35:26;3.10;99.90
55064;DHT22;40963;52.168;21.296;2023-04-06T12:37:52;3.10;99.90
55064;DHT22;40963;52.168;21.296;2023-04-06T12:40:18;3.10;99.90
55064;DHT22;40963;52.168;21.296;2023-04-06T12:42:44;3.10;99.90
55064;DHT22;40963;52.168;21.296;2023-04-06T12:45:11;3.10;99.90
55064;DHT22;40963;52.168;21.296;2023-04-06T12:47:37;3.10;99.90
55064;DHT22;40963;52.168;21.296;2023-04-06T12:50:04;3.10;99.90
55064;DHT22;40963;52.168;21.296;2023-04-06T12:52:31;3.10;99.90
55064;DHT22;40963;52.168;21.296;2023-04-06T12:54:57;3.00;99.90
55064;DHT22;40963;52.168;21.296;2023-04-06T12:57:24;3.00;99.90
55064;DHT22;40963;52.168;21.296;2023-04-06T12:59:50;3.00;99.90
55064;DHT22;40963;52.168;21.296;2023-04-06T13:02:16;3.00;99.90
55064;DHT22;40963;52.168;21.296;2023-04-06T13:04:42;3.00;99.90
55064;DHT22;40963;52.168;21.296;2023-04-06T13:07:08;3.00;99.90
55064;DHT22;40963;52.168;21.296;2023-04-06T13:09:33;3.00;99.90
55064;DHT22;40963;52.168;21.296;2023-04-06T13:11:59;3.00;99.90
55064;DHT22;40963;52.168;21.296;2023-04-06T13:14:26;2.90;99.90
55064;DHT22;40963;52.168;21.296;2023-04-06T13:16:51;2.90;99.90
55064;DHT22;40963;52.168;21.296;2023-04-06T13:19:17;2.90;99.90
55064;DHT22;40963;52.168;21.296;2023-04-06T13:21:43;2.90;99.90
55064;DHT22;40963;52.168;21.296;2023-04-06T13:24:09;2.90;99.90
55064;DHT22;40963;52.168;21.296;2023-04-06T13:26:35;2.90;99.90
55064;DHT22;40963;52.168;21.296;2023-04-06T13:29:01;2.90;99.90
55064;DHT22;40963;52.168;21.296;2023-04-06T13:31:28;2.90;99.90
55064;DHT22;40963;52.168;21.296;2023-04-06T13:33:53;2.90;99.90
55064;DHT22;40963;52.168;21.296;2023-04-06T13:36:19;2.90;99.90
55064;DHT22;40963;52.168;21.296;2023-04-06T13:38:45;2.90;99.90
55064;DHT22;40963;52.168;21.296;2023-04-06T13:41:21;2.90;99.90
55064;DHT22;40963;52.168;21.296;2023-04-06T13:43:47;3.00;99.90
55064;DHT22;40963;52.168;21.296;2023-04-06T13:46:13;2.90;99.90
55064;DHT22;40963;52.168;21.296;2023-04-06T13:48:38;2.90;99.90
55064;DHT22;40963;52.168;21.296;2023-04-06T13:51:13;2.90;99.90
55064;DHT22;40963;52.168;21.296;2023-04-06T13:53:39;2.90;99.90
55064;DHT22;40963;52.168;21.296;2023-04-06T13:56:06;2.90;99.90
55064;DHT22;40963;52.168;21.296;2023-04-06T13:58:32;2.90;99.90
55064;DHT22;40963;52.168;21.296;2023-04-06T14:01:16;3.00;99.90
55064;DHT22;40963;52.168;21.296;2023-04-06T14:03:42;3.00;99.90
55064;DHT22;40963;52.168;21.296;2023-04-06T14:06:11;3.10;99.90
55064;DHT22;40963;52.168;21.296;2023-04-06T14:08:37;3.10;99.90
55064;DHT22;40963;52.168;21.296;2023-04-06T14:11:03;3.10;99.90
55064;DHT22;40963;52.168;21.296;2023-04-06T14:13:28;3.10;99.90
55064;DHT22;40963;52.168;21.296;2023-04-06T14:15:54;3.10;99.90
55064;DHT22;40963;52.168;21.296;2023-04-06T14:18:21;3.20;99.90
55064;DHT22;40963;52.168;21.296;2023-04-06T14:20:54;3.20;99.90
55064;DHT22;40963;52.168;21.296;2023-04-06T14:23:20;3.10;99.90
55064;DHT22;40963;52.168;21.296;2023-04-06T14:25:46;3.10;99.90
55064;DHT22;40963;52.168;21.296;2023-04-06T14:28:12;3.10;99.90
55064;DHT22;40963;52.168;21.296;2023-04-06T14:30:37;3.10;99.90
55064;DHT22;40963;52.168;21.296;2023-04-06T14:33:03;3.10;99.90
55064;DHT22;40963;52.168;21.296;2023-04-06T14:35:29;3.20;99.90
55064;DHT22;40963;52.168;21.296;2023-04-06T14:37:57;3.10;99.90
55064;DHT22;40963;52.168;21.296;2023-04-06T14:40:26;3.10;99.90
55064;DHT22;40963;52.168;21.296;2023-04-06T14:42:52;3.10;99.90
55064;DHT22;40963;52.168;21.296;2023-04-06T14:45:17;3.10;99.90
55064;DHT22;40963;52.168;21.296;2023-04-06T14:47:45;3.10;99.90
55064;DHT22;40963;52.168;21.296;2023-04-06T14:50:10;3.10;99.90
55064;DHT22;40963;52.168;21.296;2023-04-06T14:52:36;3.10;99.90
55064;DHT22;40963;52.168;21.296;2023-04-06T14:55:02;3.10;99.90
55064;DHT22;40963;52.168;21.296;2023-04-06T14:57:29;3.10;99.90
55064;DHT22;40963;52.168;21.296;2023-04-06T14:59:56;3.10;99.90
55064;DHT22;40963;52.168;21.296;2023-04-06T15:02:22;3.10;99.90
55064;DHT22;40963;52.168;21.296;2023-04-06T15:04:47;3.10;99.90
55064;DHT22;40963;52.168;21.296;2023-04-06T15:07:13;3.10;99.90
55064;DHT22;40963;52.168;21.296;2023-04-06T15:09:38;3.10;99.90
55064;DHT22;40963;52.168;21.296;2023-04-06T15:12:04;3.10;99.90
55064;DHT22;40963;52.168;21.296;2023-04-06T15:14:31;3.00;99.90
55064;DHT22;40963;52.168;21.296;2023-04-06T15:16:56;3.00;99.90
55064;DHT22;40963;52.168;21.296;2023-04-06T15:19:22;3.10;99.90
55064;DHT22;40963;52.168;21.296;2023-04-06T15:21:47;3.00;99.90
55064;DHT22;40963;52.168;21.296;2023-04-06T15:24:13;3.00;99.90
55064;DHT22;40963;52.168;21.296;2023-04-06T15:26:38;3.00;99.90
55064;DHT22;40963;52.168;21.296;2023-04-06T15:29:04;3.00;99.90
55064;DHT22;40963;52.168;21.296;2023-04-06T15:31:30;3.00;99.90